Time;durP1;ratioP1;P1;durP2;ratioP2;P2;SDS_P1;SDS_P2;PMS_P1;PMS_P2;Temp;Humidity;BMP_temperature;BMP_pressure;BME280_temperature;BME280_humidity;BME280_pressure;Samples;Min_cycle;Max_cycle;Signal;HPM_P1;HPM_P2
2022/04/07 00:00:50;;;;;;;2.10;1.90;;;;;;;10.17;100.00;95048.53;5028248;28;105410;-58
2022/04/07 00:03:17;;;;;;;2.20;2.00;;;;;;;10.15;100.00;95043.47;5028817;28;101936;-58
2022/04/07 00:05:45;;;;;;;2.97;1.83;;;;;;;10.15;100.00;95040.06;5028783;28;104859;-58
2022/04/07 00:08:12;;;;;;;2.00;1.90;;;;;;;10.15;100.00;95040.06;5028206;28;105386;-58
2022/04/07 00:10:39;;;;;;;3.03;2.10;;;;;;;10.13;100.00;95039.53;5028508;28;101960;-58
2022/04/07 00:13:07;;;;;;;2.23;1.87;;;;;;;10.14;100.00;95043.78;5030365;28;102366;-58
2022/04/07 00:15:35;;;;;;;2.10;1.90;;;;;;;10.13;100.00;95035.00;5027962;28;104133;-58
2022/04/07 00:18:02;;;;;;;1.60;1.50;;;;;;;10.12;100.00;95032.63;5028426;28;102021;-58
2022/04/07 00:20:29;;;;;;;1.70;1.50;;;;;;;10.18;100.00;95036.81;5031128;28;105220;-58
2022/04/07 00:22:57;;;;;;;1.50;1.20;;;;;;;10.27;100.00;95029.84;5028688;28;101958;-58
2022/04/07 00:25:26;;;;;;;2.20;1.17;;;;;;;10.36;100.00;95028.94;5028483;28;104818;-58
2022/04/07 00:27:53;;;;;;;1.30;1.30;;;;;;;10.42;100.00;95021.72;5029001;27;102513;-58
2022/04/07 00:30:21;;;;;;;1.27;1.27;;;;;;;10.46;100.00;95014.78;5029826;28;101874;-58
2022/04/07 00:32:50;;;;;;;1.30;1.20;;;;;;;10.49;100.00;95014.19;5028330;28;104813;-58
2022/04/07 00:35:18;;;;;;;1.10;1.10;;;;;;;10.52;100.00;95013.63;5027783;28;105859;-58
2022/04/07 00:37:45;;;;;;;1.00;1.00;;;;;;;10.46;100.00;95004.91;5028314;28;101845;-58
2022/04/07 00:40:13;;;;;;;1.10;1.00;;;;;;;10.44;100.00;95006.28;5028248;28;105511;-58
2022/04/07 00:42:47;;;;;;;1.30;1.20;;;;;;;10.42;100.00;95008.44;5031023;28;104488;-58
2022/04/07 00:45:15;;;;;;;2.00;1.17;;;;;;;10.40;100.00;95010.56;5028477;28;105244;-58
2022/04/07 00:47:42;;;;;;;2.70;1.30;;;;;;;10.36;100.00;95004.25;5027650;28;105341;-58
2022/04/07 00:50:12;;;;;;;2.37;1.20;;;;;;;10.36;100.00;94999.72;5028058;28;101974;-58
2022/04/07 00:52:41;;;;;;;1.77;1.30;;;;;;;10.35;100.00;95005.31;5028063;28;105790;-58
2022/04/07 00:55:10;;;;;;;2.23;1.50;;;;;;;10.36;100.00;94998.94;5029315;27;105463;-58
2022/04/07 00:57:39;;;;;;;1.40;1.10;;;;;;;10.36;100.00;95009.56;5031725;28;101799;-58
2022/04/07 01:00:08;;;;;;;1.53;1.00;;;;;;;10.32;100.00;95001.38;5031604;28;104821;-58
2022/04/07 01:02:35;;;;;;;1.97;0.87;;;;;;;10.31;100.00;94996.31;5030824;28;105605;-58
2022/04/07 01:05:03;;;;;;;1.67;1.00;;;;;;;10.30;100.00;95000.06;5035010;28;102273;-58
2022/04/07 01:07:32;;;;;;;1.03;1.00;;;;;;;10.18;100.00;94996.97;5032468;28;102747;-58
2022/04/07 01:09:59;;;;;;;0.90;0.90;;;;;;;10.24;100.00;94996.66;5032739;27;101889;-58
2022/04/07 01:12:27;;;;;;;1.20;1.10;;;;;;;10.32;100.00;94997.91;5032886;28;102442;-58
2022/04/07 01:14:55;;;;;;;1.00;1.00;;;;;;;10.33;100.00;94991.50;5031001;28;102557;-58
2022/04/07 01:17:23;;;;;;;1.53;1.00;;;;;;;10.29;100.00;94987.81;5032915;28;102119;-58
2022/04/07 01:19:50;;;;;;;0.87;0.87;;;;;;;10.29;100.00;94985.16;5032472;28;102825;-58
2022/04/07 01:22:17;;;;;;;0.90;0.90;;;;;;;10.36;100.00;94990.97;5030698;28;105447;-58
2022/04/07 01:24:47;;;;;;;1.00;1.00;;;;;;;10.35;100.00;94986.72;5032619;28;101804;-58
2022/04/07 01:27:16;;;;;;;0.90;0.90;;;;;;;10.31;100.00;94981.16;5035478;27;102352;-58
2022/04/07 01:29:43;;;;;;;0.93;0.90;;;;;;;10.30;100.00;94986.78;5031040;28;101952;-58
2022/04/07 01:32:16;;;;;;;1.00;1.00;;;;;;;10.30;100.00;94984.91;5032332;28;102530;-58
2022/04/07 01:34:44;;;;;;;0.80;0.80;;;;;;;10.34;100.00;94979.81;5030475;28;105406;-58
2022/04/07 01:37:12;;;;;;;1.10;1.10;;;;;;;10.33;100.00;94973.72;5032403;27;101834;-58
2022/04/07 01:39:42;;;;;;;1.10;1.00;;;;;;;10.37;100.00;94968.63;5032270;28;102613;-58
2022/04/07 01:42:14;;;;;;;1.03;1.03;;;;;;;10.37;100.00;94981.91;5031652;28;104233;-58
2022/04/07 01:44:47;;;;;;;1.40;0.83;;;;;;;10.30;100.00;94974.28;5032641;28;101859;-58
2022/04/07 01:47:19;;;;;;;1.00;1.00;;;;;;;10.19;100.00;94977.34;5031073;28;105781;-58
2022/04/07 01:49:47;;;;;;;1.47;1.17;;;;;;;10.21;100.00;94975.19;5035223;28;102081;-58
2022/04/07 01:52:14;;;;;;;1.03;1.00;;;;;;;10.20;100.00;94973.59;5032178;28;102358;-58
2022/04/07 01:54:44;;;;;;;1.33;1.00;;;;;;;10.14;100.00;94969.41;5030887;28;102349;-58
2022/04/07 01:57:14;;;;;;;0.90;0.90;;;;;;;10.10;100.00;94968.38;5030494;28;102073;-58
2022/04/07 01:59:41;;;;;;;1.27;1.10;;;;;;;10.01;100.00;94962.88;5031987;28;102841;-58
2022/04/07 02:02:08;;;;;;;1.00;1.00;;;;;;;10.00;100.00;94961.28;5031456;28;102903;-58
2022/04/07 02:04:51;;;;;;;1.10;1.10;;;;;;;10.03;100.00;94957.28;5031741;27;101861;-58
2022/04/07 02:07:18;;;;;;;1.20;1.10;;;;;;;9.94;100.00;94965.06;5032260;28;102931;-58
2022/04/07 02:09:45;;;;;;;1.40;1.13;;;;;;;9.85;100.00;94968.59;5034749;28;102827;-58
2022/04/07 02:12:14;;;;;;;1.30;1.20;;;;;;;9.80;100.00;94971.28;5032106;28;102437;-58
2022/04/07 02:14:42;;;;;;;1.30;1.20;;;;;;;9.75;100.00;94968.72;5029840;28;104141;-58
2022/04/07 02:17:09;;;;;;;1.40;1.40;;;;;;;9.73;100.00;94960.22;5031894;28;102155;-58
2022/04/07 02:19:36;;;;;;;1.40;1.40;;;;;;;9.63;100.00;94968.25;5030164;28;105985;-58
2022/04/07 02:22:04;;;;;;;2.90;1.50;;;;;;;9.66;100.00;94968.50;5029735;28;106772;-58
2022/04/07 02:24:31;;;;;;;1.50;1.40;;;;;;;9.66;100.00;94962.41;5031880;27;101882;-58
2022/04/07 02:26:57;;;;;;;1.60;1.50;;;;;;;9.65;100.00;94966.13;5031673;28;102935;-58
2022/04/07 02:29:26;;;;;;;3.20;1.70;;;;;;;9.58;100.00;94961.13;5031204;27;102530;-58
2022/04/07 02:31:53;;;;;;;1.60;1.50;;;;;;;9.59;100.00;94959.28;5035024;27;101778;-58
2022/04/07 02:34:20;;;;;;;1.70;1.60;;;;;;;9.58;100.00;94963.00;5029461;28;105246;-58
2022/04/07 02:36:47;;;;;;;1.83;1.70;;;;;;;9.63;100.00;94955.00;5030172;28;101819;-58
2022/04/07 02:39:14;;;;;;;1.43;1.43;;;;;;;9.70;100.00;94952.81;5031348;28;102292;-58
2022/04/07 02:41:41;;;;;;;2.33;1.93;;;;;;;9.72;100.00;94950.66;5031258;28;102665;-58
2022/04/07 02:44:08;;;;;;;1.80;1.50;;;;;;;9.75;100.00;94945.59;5031841;27;101706;-58
2022/04/07 02:46:37;;;;;;;1.67;1.40;;;;;;;9.76;100.00;94941.09;5029809;28;105524;-58
2022/04/07 02:49:05;;;;;;;1.47;1.37;;;;;;;9.76;100.00;94951.69;5030454;27;102747;-58
2022/04/07 02:51:32;;;;;;;1.57;1.47;;;;;;;9.75;100.00;94950.91;5031144;28;101848;-58
2022/04/07 02:53:58;;;;;;;1.67;1.57;;;;;;;9.81;100.00;94955.09;5032605;28;103699;-58
2022/04/07 02:56:26;;;;;;;1.77;1.60;;;;;;;9.82;100.00;94955.88;5031529;27;101699;-58
2022/04/07 02:58:53;;;;;;;1.43;1.40;;;;;;;9.77;100.00;94947.97;5029545;28;105588;-57
2022/04/07 03:01:20;;;;;;;1.60;1.50;;;;;;;9.80;100.00;94947.41;5030583;27;103159;-58
2022/04/07 03:03:49;;;;;;;1.70;1.60;;;;;;;9.84;100.00;94945.78;5031073;28;101812;-58
2022/04/07 03:06:17;;;;;;;1.67;1.57;;;;;;;9.80;100.00;94939.44;5030968;27;102343;-58
2022/04/07 03:08:45;;;;;;;1.00;1.00;;;;;;;10.17;100.00;94935.09;5030271;28;102550;-58
2022/04/07 03:11:13;;;;;;;1.00;1.00;;;;;;;10.18;100.00;94939.34;5031032;27;101768;-58
2022/04/07 03:13:40;;;;;;;1.50;1.40;;;;;;;10.00;100.00;94942.69;5031077;27;102470;-58
2022/04/07 03:16:08;;;;;;;1.67;1.40;;;;;;;9.91;100.00;94944.38;5032242;27;105483;-58
2022/04/07 03:18:36;;;;;;;1.10;1.10;;;;;;;9.95;100.00;94944.59;5030019;27;102481;-58
2022/04/07 03:21:05;;;;;;;1.37;1.37;;;;;;;10.04;100.00;94948.28;5030139;27;103042;-58
2022/04/07 03:23:32;;;;;;;1.40;1.30;;;;;;;10.04;100.00;94946.38;5029469;28;101955;-58
2022/04/07 03:26:00;;;;;;;1.93;1.40;;;;;;;10.00;100.00;94953.31;5031118;28;101769;-58
2022/04/07 03:28:28;;;;;;;1.77;1.30;;;;;;;9.84;100.00;94954.53;5028608;28;105691;-58
2022/04/07 03:30:55;;;;;;;1.40;1.30;;;;;;;9.78;100.00;94954.84;5029329;28;101855;-58
2022/04/07 03:33:21;;;;;;;1.47;1.20;;;;;;;9.76;100.00;94962.31;5030647;28;102836;-58
2022/04/07 03:35:49;;;;;;;1.30;1.20;;;;;;;9.75;100.00;94950.13;5028556;28;103740;-58
2022/04/07 03:38:17;;;;;;;1.40;1.30;;;;;;;9.68;100.00;94954.94;5032809;28;101821;-58
2022/04/07 03:40:44;;;;;;;1.87;1.73;;;;;;;9.64;100.00;94956.56;5028845;28;105445;-58
2022/04/07 03:43:11;;;;;;;1.90;1.20;;;;;;;9.60;100.00;94958.22;5028942;28;101857;-58
2022/04/07 03:45:38;;;;;;;1.07;1.07;;;;;;;9.57;100.00;94951.59;5029183;28;104364;-58
2022/04/07 03:48:05;;;;;;;0.80;0.80;;;;;;;9.61;100.00;94949.97;5028485;28;105418;-58
2022/04/07 03:50:32;;;;;;;0.80;0.80;;;;;;;9.62;100.00;94954.22;5029007;28;101984;-58
2022/04/07 03:53:00;;;;;;;0.70;0.70;;;;;;;9.64;100.00;94953.91;5028970;28;105150;-58
2022/04/07 03:55:29;;;;;;;1.60;1.50;;;;;;;9.61;100.00;94959.78;5027644;28;105628;-58
2022/04/07 03:57:55;;;;;;;1.00;1.00;;;;;;;9.66;100.00;94963.19;5028954;28;101886;-58
2022/04/07 04:00:25;;;;;;;0.80;0.80;;;;;;;9.64;100.00;94968.00;5031744;28;105170;-58
2022/04/07 04:02:52;;;;;;;1.00;1.00;;;;;;;9.65;100.00;94966.91;5028683;28;101762;-58
2022/04/07 04:05:20;;;;;;;0.80;0.80;;;;;;;9.65;100.00;94955.53;5028670;28;104965;-58
2022/04/07 04:07:48;;;;;;;0.77;0.77;;;;;;;9.64;100.00;94956.56;5028117;28;105532;-58
2022/04/07 04:10:15;;;;;;;0.70;0.70;;;;;;;9.56;100.00;94957.97;5028821;28;101856;-58
2022/04/07 04:12:43;;;;;;;0.80;0.80;;;;;;;9.59;100.00;94956.63;5028764;28;104064;-58
2022/04/07 04:15:10;;;;;;;0.80;0.80;;;;;;;9.57;100.00;94956.09;5028081;28;105069;-58
2022/04/07 04:17:38;;;;;;;0.90;0.77;;;;;;;9.57;100.00;94953.44;5029660;28;101855;-58
2022/04/07 04:20:05;;;;;;;2.00;0.90;;;;;;;9.61;100.00;94951.84;5032948;28;102859;-58
2022/04/07 04:22:33;;;;;;;0.60;0.60;;;;;;;9.60;100.00;94963.53;5028719;28;101782;-58
2022/04/07 04:25:00;;;;;;;0.70;0.70;;;;;;;9.56;100.00;94957.19;5028330;28;104014;-58
2022/04/07 04:27:27;;;;;;;0.97;0.73;;;;;;;9.56;100.00;94957.19;5027903;28;104993;-58
2022/04/07 04:29:56;;;;;;;0.67;0.67;;;;;;;9.50;100.00;94947.69;5031682;28;102021;-58
2022/04/07 04:32:23;;;;;;;0.80;0.80;;;;;;;9.44;100.00;94944.25;5032144;28;105225;-58
2022/04/07 04:34:50;;;;;;;2.03;0.80;;;;;;;9.40;100.00;94948.56;5031169;28;105076;-58
2022/04/07 04:37:17;;;;;;;0.97;0.90;;;;;;;9.37;100.00;94956.28;5031799;28;101930;-58
2022/04/07 04:39:45;;;;;;;0.80;0.70;;;;;;;9.35;100.00;94955.75;5031963;28;105594;-58
2022/04/07 04:42:11;;;;;;;0.77;0.73;;;;;;;9.32;100.00;94961.63;5034717;28;105531;-58
2022/04/07 04:44:38;;;;;;;0.80;0.80;;;;;;;9.26;100.00;94963.50;5031651;28;105067;-58
2022/04/07 04:47:08;;;;;;;0.80;0.80;;;;;;;9.21;100.00;94960.13;5032759;28;102616;-58
2022/04/07 04:49:36;;;;;;;0.70;0.70;;;;;;;9.25;100.00;94963.78;5031847;28;101885;-58
2022/04/07 04:52:04;;;;;;;1.20;0.90;;;;;;;9.22;100.00;94974.97;5031656;28;105381;-58
2022/04/07 04:54:30;;;;;;;1.03;1.03;;;;;;;9.23;100.00;94981.84;5030638;28;105258;-58
2022/04/07 04:56:58;;;;;;;0.90;0.90;;;;;;;9.26;100.00;94978.66;5031699;28;101881;-58
2022/04/07 04:59:25;;;;;;;0.70;0.70;;;;;;;9.31;100.00;94974.09;5031664;28;105559;-58
2022/04/07 05:01:52;;;;;;;0.70;0.70;;;;;;;9.32;100.00;94977.53;5030911;28;105348;-58
2022/04/07 05:04:21;;;;;;;0.83;0.83;;;;;;;9.34;100.00;94970.91;5034830;28;101677;-58
2022/04/07 05:06:48;;;;;;;0.73;0.70;;;;;;;9.41;100.00;94974.03;5030910;28;103782;-58
2022/04/07 05:09:15;;;;;;;0.77;0.77;;;;;;;9.45;100.00;94982.22;5031396;28;101950;-58
2022/04/07 05:11:41;;;;;;;1.20;0.70;;;;;;;9.49;100.00;94977.94;5031340;28;106223;-58
2022/04/07 05:14:08;;;;;;;2.63;0.70;;;;;;;9.54;100.00;94975.25;5030647;28;105348;-59
2022/04/07 05:16:36;;;;;;;0.60;0.60;;;;;;;9.56;100.00;94981.88;5031284;28;101782;-59
2022/04/07 05:19:03;;;;;;;0.90;0.60;;;;;;;9.63;100.00;94973.56;5031190;28;105270;-59
2022/04/07 05:21:31;;;;;;;0.50;0.50;;;;;;;9.66;100.00;94976.44;5031898;28;102651;-59
2022/04/07 05:23:58;;;;;;;1.07;0.63;;;;;;;9.70;100.00;94974.06;5031318;28;102174;-59
2022/04/07 05:26:25;;;;;;;0.60;0.60;;;;;;;9.67;100.00;94977.25;5034036;28;105283;-59
2022/04/07 05:28:52;;;;;;;0.70;0.70;;;;;;;9.73;100.00;94984.09;5031297;28;102013;-59
2022/04/07 05:31:19;;;;;;;0.60;0.57;;;;;;;9.75;100.00;94977.44;5031089;28;103587;-59
2022/04/07 05:33:47;;;;;;;0.70;0.70;;;;;;;9.76;100.00;94973.72;5030347;28;105897;-59
2022/04/07 05:36:14;;;;;;;1.40;1.10;;;;;;;9.80;100.00;94972.09;5031015;28;101920;-59
2022/04/07 05:38:42;;;;;;;0.80;0.80;;;;;;;9.85;100.00;94972.06;5031207;28;105529;-59
2022/04/07 05:41:09;;;;;;;0.70;0.70;;;;;;;9.90;100.00;94968.53;5029262;28;105425;-59
2022/04/07 05:43:36;;;;;;;0.70;0.70;;;;;;;9.85;100.00;94964.09;5030891;28;101835;-59
2022/04/07 05:46:03;;;;;;;0.70;0.70;;;;;;;9.88;100.00;94958.19;5030889;28;104803;-59
2022/04/07 05:48:29;;;;;;;0.60;0.60;;;;;;;9.94;100.00;94961.63;5033783;28;105374;-59
2022/04/07 05:50:56;;;;;;;0.60;0.60;;;;;;;9.96;100.00;94949.63;5030457;28;106256;-59
2022/04/07 05:53:23;;;;;;;0.50;0.50;;;;;;;10.02;100.00;94945.06;5030217;28;105415;-59
2022/04/07 05:55:52;;;;;;;2.47;0.57;;;;;;;10.08;100.00;94944.00;5030275;28;102038;-59
2022/04/07 05:58:19;;;;;;;0.67;0.67;;;;;;;10.08;100.00;94920.09;5030684;28;105143;-59
2022/04/07 06:00:46;;;;;;;0.50;0.50;;;;;;;10.15;100.00;94923.19;5029825;28;105491;-59
2022/04/07 06:03:13;;;;;;;0.77;0.77;;;;;;;10.28;100.00;94920.63;5030750;28;101786;-59
2022/04/07 06:05:40;;;;;;;0.73;0.50;;;;;;;10.36;100.00;94913.91;5030659;28;103745;-59
2022/04/07 06:08:07;;;;;;;0.50;0.50;;;;;;;10.29;100.00;94914.25;5029897;28;105494;-59
2022/04/07 06:10:34;;;;;;;1.17;0.70;;;;;;;10.32;100.00;94905.72;5033521;28;101759;-59
2022/04/07 06:13:03;;;;;;;0.60;0.60;;;;;;;10.32;100.00;94902.25;5029627;28;104463;-59
2022/04/07 06:15:30;;;;;;;0.50;0.50;;;;;;;10.21;100.00;94908.78;5031937;28;101832;-59
2022/04/07 06:17:57;;;;;;;0.50;0.50;;;;;;;10.15;100.00;94904.59;5030147;28;103661;-59
2022/04/07 06:20:24;;;;;;;2.10;0.83;;;;;;;10.17;100.00;94897.94;5030992;28;102225;-59
2022/04/07 06:22:51;;;;;;;1.23;0.70;;;;;;;10.27;100.00;94889.84;5031997;28;102095;-59
2022/04/07 06:25:18;;;;;;;0.67;0.50;;;;;;;10.39;100.00;94894.72;5030161;28;104759;-59
2022/04/07 06:27:46;;;;;;;0.50;0.50;;;;;;;10.62;100.00;94896.53;5031312;27;102708;-59
2022/04/07 06:30:17;;;;;;;0.93;0.63;;;;;;;10.71;100.00;94894.84;5016727;28;101975;-59
2022/04/07 06:32:45;;;;;;;0.50;0.50;;;;;;;10.76;100.00;94895.56;5029565;28;105348;-59
2022/04/07 06:35:14;;;;;;;1.40;1.23;;;;;;;10.80;100.00;94888.59;5030340;28;101932;-59
2022/04/07 06:37:53;;;;;;;1.30;0.87;;;;;;;10.98;100.00;94881.69;5029959;28;103766;-59
2022/04/07 06:40:21;;;;;;;1.40;1.30;;;;;;;11.28;100.00;94878.56;5029711;28;104021;-59
2022/04/07 06:42:49;;;;;;;1.70;1.60;;;;;;;11.36;100.00;94881.34;5030004;28;101874;-59
2022/04/07 06:45:18;;;;;;;0.50;0.50;;;;;;;11.49;100.00;94875.28;5029862;28;105646;-60
2022/04/07 06:47:45;;;;;;;0.57;0.50;;;;;;;11.68;100.00;94872.56;5029375;28;105744;-59
2022/04/07 06:50:14;;;;;;;0.60;0.60;;;;;;;11.77;100.00;94874.25;5030079;28;101847;-60
2022/04/07 06:52:42;;;;;;;0.80;0.80;;;;;;;11.47;100.00;94866.78;5032316;28;105512;-60
2022/04/07 06:55:10;;;;;;;0.80;0.80;;;;;;;11.42;100.00;94874.06;5029764;28;102099;-60
2022/04/07 06:57:53;;;;;;;0.80;0.80;;;;;;;11.40;100.00;94876.22;5031182;28;102340;-60
2022/04/07 07:00:24;;;;;;;0.90;0.90;;;;;;;11.39;100.00;94869.34;5030831;27;101708;-60
2022/04/07 07:02:52;;;;;;;0.60;0.60;;;;;;;11.21;100.00;94867.47;5029655;28;102124;-60
2022/04/07 07:05:19;;;;;;;0.83;0.80;;;;;;;11.10;100.00;94871.38;5030988;28;102424;-60
2022/04/07 07:07:46;;;;;;;0.97;0.97;;;;;;;11.07;100.00;94869.31;5030461;27;103135;-60
2022/04/07 07:10:13;;;;;;;1.43;1.03;;;;;;;11.14;100.00;94869.72;5031337;27;101854;-60
2022/04/07 07:12:40;;;;;;;1.57;1.40;;;;;;;11.19;100.00;94869.66;5031048;28;102311;-60
2022/04/07 07:15:08;;;;;;;1.60;1.50;;;;;;;11.35;100.00;94858.47;5032236;28;105309;-60
2022/04/07 07:17:40;;;;;;;1.70;1.60;;;;;;;11.47;100.00;94858.00;5029387;28;105652;-60
2022/04/07 07:20:10;;;;;;;1.80;1.60;;;;;;;11.46;100.00;94859.09;5030499;28;102884;-60
2022/04/07 07:22:37;;;;;;;1.90;1.80;;;;;;;11.40;100.00;94846.97;5030787;27;101887;-60
2022/04/07 07:25:05;;;;;;;2.23;2.10;;;;;;;11.34;100.00;94864.09;5029294;28;105507;-60
2022/04/07 07:27:36;;;;;;;2.23;1.70;;;;;;;11.77;100.00;94855.63;5028491;28;105782;-60
2022/04/07 07:30:08;;;;;;;3.10;1.70;;;;;;;12.11;100.00;94840.03;5029578;28;101866;-60
2022/04/07 07:32:35;;;;;;;1.27;1.27;;;;;;;12.07;100.00;94827.63;5030682;27;102608;-60
2022/04/07 07:35:04;;;;;;;1.40;1.30;;;;;;;12.13;100.00;94824.56;5030074;27;102723;-60
2022/04/07 07:37:31;;;;;;;1.50;1.40;;;;;;;12.31;100.00;94818.31;5032684;28;102016;-60
2022/04/07 07:40:03;;;;;;;1.13;1.13;;;;;;;12.14;100.00;94826.13;5028356;28;105424;-60
2022/04/07 07:42:30;;;;;;;1.30;1.20;;;;;;;12.58;100.00;94826.25;5030650;27;101704;-60
2022/04/07 07:44:57;;;;;;;1.50;1.40;;;;;;;12.62;100.00;94813.13;5030549;28;102992;-60
2022/04/07 07:47:24;;;;;;;1.47;1.10;;;;;;;12.69;100.00;94802.81;5028428;28;105508;-60
2022/04/07 07:49:53;;;;;;;1.50;1.30;;;;;;;12.68;100.00;94806.56;5028880;28;101911;-60
2022/04/07 07:52:21;;;;;;;1.67;0.80;;;;;;;12.84;100.00;94821.16;5029480;28;102878;-60
2022/04/07 07:54:48;;;;;;;0.90;0.90;;;;;;;12.86;100.00;94816.31;5027652;28;105435;-60
2022/04/07 07:57:15;;;;;;;0.90;0.90;;;;;;;13.04;100.00;94812.69;5028833;28;101894;-60
2022/04/07 07:59:42;;;;;;;0.80;0.80;;;;;;;13.17;100.00;94809.16;5033267;28;102756;-60
2022/04/07 08:02:09;;;;;;;1.37;0.77;;;;;;;13.13;100.00;94810.91;5028555;28;101955;-60
2022/04/07 08:04:35;;;;;;;0.60;0.60;;;;;;;13.36;100.00;94807.09;5028261;28;105662;-60
2022/04/07 08:07:03;;;;;;;0.70;0.70;;;;;;;13.27;100.00;94795.59;5028252;28;105091;-60
2022/04/07 08:09:31;;;;;;;0.70;0.70;;;;;;;13.33;100.00;94797.81;5028888;28;101958;-60
2022/04/07 08:11:59;;;;;;;0.70;0.70;;;;;;;13.46;100.00;94812.19;5028506;28;105325;-60
2022/04/07 08:14:26;;;;;;;0.87;0.77;;;;;;;13.25;100.00;94805.78;5029843;28;102605;-60
2022/04/07 08:16:53;;;;;;;0.97;0.97;;;;;;;13.59;100.00;94796.09;5028824;28;102057;-60
2022/04/07 08:19:20;;;;;;;1.70;0.70;;;;;;;13.75;100.00;94799.13;5028790;28;103874;-60
2022/04/07 08:21:47;;;;;;;0.60;0.60;;;;;;;13.92;100.00;94789.31;5031337;28;102037;-60
2022/04/07 08:24:16;;;;;;;1.03;0.93;;;;;;;13.79;100.00;94784.06;5028611;28;105485;-60
2022/04/07 08:26:44;;;;;;;0.57;0.57;;;;;;;14.07;100.00;94772.06;5027670;28;105385;-60
2022/04/07 08:29:11;;;;;;;0.77;0.70;;;;;;;14.24;100.00;94777.47;5028537;28;101727;-60
2022/04/07 08:31:38;;;;;;;0.80;0.70;;;;;;;14.25;100.00;94771.03;5028604;28;105137;-60
2022/04/07 08:34:05;;;;;;;0.60;0.60;;;;;;;14.10;100.00;94764.19;5027559;28;105553;-60
2022/04/07 08:36:32;;;;;;;0.90;0.70;;;;;;;14.40;100.00;94757.97;5028400;28;102241;-60
2022/04/07 08:38:58;;;;;;;0.80;0.80;;;;;;;14.69;100.00;94750.16;5030038;28;102625;-60
2022/04/07 08:41:31;;;;;;;1.00;0.90;;;;;;;14.98;100.00;94752.94;5031015;28;103863;-60
2022/04/07 08:44:00;;;;;;;0.50;0.50;;;;;;;14.81;100.00;94746.81;5028385;28;103751;-60
2022/04/07 08:46:28;;;;;;;0.60;0.60;;;;;;;14.84;100.00;94747.00;5027583;28;105312;-60
2022/04/07 08:48:56;;;;;;;0.70;0.70;;;;;;;15.17;100.00;94749.94;5029792;28;101864;-60
2022/04/07 08:51:26;;;;;;;0.60;0.60;;;;;;;15.25;100.00;94749.13;5028358;28;105147;-60
2022/04/07 08:53:54;;;;;;;1.30;0.67;;;;;;;15.60;100.00;94753.31;5028988;27;102766;-60
2022/04/07 08:56:22;;;;;;;1.90;0.50;;;;;;;15.66;100.00;94750.16;5029789;28;101894;-60
2022/04/07 08:58:49;;;;;;;0.40;0.40;;;;;;;15.23;100.00;94738.75;5028095;28;104856;-60
2022/04/07 09:01:17;;;;;;;0.60;0.40;;;;;;;15.22;100.00;94736.38;5010742;28;106355;-60
2022/04/07 09:03:44;;;;;;;0.50;0.50;;;;;;;15.25;97.89;94739.19;5031346;28;101917;-60
2022/04/07 09:06:11;;;;;;;0.50;0.50;;;;;;;15.34;100.00;94731.97;5027376;28;104003;-60
2022/04/07 09:08:40;;;;;;;0.80;0.60;;;;;;;15.73;95.03;94725.50;5029343;28;101851;-60
2022/04/07 09:11:08;;;;;;;0.77;0.40;;;;;;;15.48;93.26;94726.41;5029574;28;102453;-60
2022/04/07 09:13:39;;;;;;;0.77;0.77;;;;;;;15.31;90.55;94729.13;5028752;28;102640;-60
2022/04/07 09:16:07;;;;;;;0.37;0.37;;;;;;;15.27;94.31;94723.59;5029998;27;101978;-60
2022/04/07 09:18:36;;;;;;;0.73;0.50;;;;;;;15.75;93.07;94724.09;5032416;27;102481;-60
2022/04/07 09:21:04;;;;;;;0.50;0.50;;;;;;;15.56;93.69;94714.88;5032367;27;102562;-60
2022/04/07 09:23:37;;;;;;;1.90;0.50;;;;;;;15.78;93.24;94726.13;5032978;28;101797;-60
2022/04/07 09:26:04;;;;;;;0.60;0.60;;;;;;;15.97;89.14;94710.41;5035811;28;102924;-60
2022/04/07 09:28:32;;;;;;;0.50;0.50;;;;;;;16.36;89.62;94718.03;5032360;27;102124;-60
2022/04/07 09:31:00;;;;;;;0.50;0.50;;;;;;;16.60;86.28;94718.22;5032656;28;102640;-60
2022/04/07 09:33:29;;;;;;;0.60;0.60;;;;;;;16.42;88.10;94716.00;5030298;28;104370;-60
2022/04/07 09:36:02;;;;;;;0.50;0.50;;;;;;;15.96;88.36;94714.19;5032631;28;101793;-60
2022/04/07 09:38:31;;;;;;;0.60;0.60;;;;;;;16.38;86.55;94709.66;5031160;28;105257;-60
2022/04/07 09:41:08;;;;;;;0.70;0.70;;;;;;;16.73;85.51;94700.28;5031721;27;102722;-60
2022/04/07 09:43:45;;;;;;;0.70;0.63;;;;;;;16.45;82.92;94691.97;5032626;27;101912;-60
2022/04/07 09:46:14;;;;;;;0.70;0.70;;;;;;;16.34;90.42;94671.19;5030916;28;104055;-60
2022/04/07 09:48:58;;;;;;;0.60;0.60;;;;;;;16.48;83.20;94680.59;5033376;28;104128;-60
2022/04/07 09:51:28;;;;;;;0.60;0.60;;;;;;;17.00;78.71;94681.69;5032289;28;102552;-60
2022/04/07 09:53:56;;;;;;;1.60;0.80;;;;;;;17.08;92.07;94656.66;5031429;28;103061;-61
2022/04/07 09:56:27;;;;;;;1.03;0.50;;;;;;;17.27;74.96;94664.19;5032244;27;101749;-60
2022/04/07 09:58:54;;;;;;;1.13;0.70;;;;;;;17.37;70.38;94653.00;5030672;28;106615;-60
2022/04/07 10:01:21;;;;;;;0.80;0.70;;;;;;;17.45;73.40;94644.09;5029918;28;103815;-60
2022/04/07 10:03:51;;;;;;;1.20;0.50;;;;;;;17.62;71.80;94639.28;5030720;28;101891;-60
2022/04/07 10:06:18;;;;;;;0.50;0.50;;;;;;;17.45;70.68;94636.03;5030523;28;105562;-60
2022/04/07 10:08:51;;;;;;;0.90;0.80;;;;;;;17.22;72.43;94619.50;5029907;28;105377;-60
2022/04/07 10:11:19;;;;;;;0.60;0.60;;;;;;;17.58;67.68;94610.72;5033890;28;101840;-60
2022/04/07 10:13:46;;;;;;;0.60;0.60;;;;;;;18.01;73.83;94611.69;5031563;28;102840;-60
2022/04/07 10:16:15;;;;;;;0.63;0.63;;;;;;;17.95;66.51;94607.69;5030391;28;101989;-60
2022/04/07 10:18:48;;;;;;;0.60;0.60;;;;;;;17.44;69.28;94596.84;5031722;28;102818;-60
2022/04/07 10:21:32;;;;;;;1.43;0.60;;;;;;;17.53;68.36;94589.44;5031205;28;102630;-60
2022/04/07 10:24:16;;;;;;;0.60;0.60;;;;;;;18.09;66.76;94591.16;5031856;28;101983;-60
2022/04/07 10:26:46;;;;;;;0.70;0.70;;;;;;;17.27;71.90;94580.94;5030224;28;105539;-60
2022/04/07 10:29:22;;;;;;;0.60;0.60;;;;;;;17.34;74.31;94571.16;5031512;27;101806;-60
2022/04/07 10:32:18;;;;;;;1.90;0.60;;;;;;;17.83;71.51;94564.66;5035110;28;101703;-60
2022/04/07 10:34:54;;;;;;;1.17;0.60;;;;;;;17.89;62.87;94559.84;5031030;28;103141;-60
2022/04/07 10:37:30;;;;;;;0.53;0.50;;;;;;;17.64;57.32;94539.47;5031402;28;102425;-60
2022/04/07 10:40:37;;;;;;;0.40;0.40;;;;;;;17.50;57.39;94541.75;5031868;28;102894;-60
2022/04/07 10:43:21;;;;;;;1.27;0.67;;;;;;;18.03;57.67;94536.06;5030896;28;103116;-60
2022/04/07 10:45:50;;;;;;;0.97;0.60;;;;;;;17.90;54.50;94539.88;5031386;28;101676;-60
2022/04/07 10:48:27;;;;;;;0.40;0.40;;;;;;;17.96;52.64;94525.88;5029897;28;105672;-60
2022/04/07 10:50:56;;;;;;;0.50;0.50;;;;;;;18.50;55.83;94518.16;5029285;28;105613;-60
2022/04/07 10:53:26;;;;;;;0.47;0.47;;;;;;;18.27;53.32;94512.53;5031394;28;101710;-60
2022/04/07 10:56:00;;;;;;;0.50;0.50;;;;;;;18.54;52.56;94503.66;5033482;28;101732;-60
2022/04/07 10:58:47;;;;;;;0.50;0.50;;;;;;;18.91;50.60;94504.97;5031109;27;101912;-60
2022/04/07 11:01:32;;;;;;;0.90;0.73;;;;;;;19.02;49.27;94508.72;5029936;28;104380;-60
2022/04/07 11:04:48;;;;;;;1.97;0.73;;;;;;;19.04;49.35;94498.41;5030317;27;103105;-60
2022/04/07 11:07:17;;;;;;;0.93;0.50;;;;;;;18.58;47.63;94495.69;5030004;28;102326;-60
2022/04/07 11:09:47;;;;;;;1.40;0.70;;;;;;;18.92;49.97;94495.78;5027483;28;105507;-59
2022/04/07 11:12:18;;;;;;;0.67;0.57;;;;;;;19.25;47.98;94481.97;5029585;28;103730;-59
2022/04/07 11:14:46;;;;;;;0.90;0.40;;;;;;;19.98;49.69;94472.00;5030581;28;102116;-60
2022/04/07 11:17:22;;;;;;;1.17;0.70;;;;;;;19.92;46.84;94470.72;5030563;28;102387;-60
2022/04/07 11:19:59;;;;;;;0.50;0.50;;;;;;;19.34;44.67;94467.16;5032766;28;104466;-58
2022/04/07 11:22:52;;;;;;;0.63;0.57;;;;;;;19.33;47.09;94456.72;5030431;28;102571;-59
2022/04/07 11:25:25;;;;;;;0.40;0.40;;;;;;;19.16;48.90;94455.19;5029941;27;102641;-59
2022/04/07 11:28:15;;;;;;;0.60;0.50;;;;;;;18.48;50.00;94442.34;5029985;27;101816;-58
2022/04/07 11:30:46;;;;;;;1.53;0.60;;;;;;;18.83;50.87;94443.22;5026188;27;102010;-59